King, North Carolina
Current Conditions -  °F | °C
As of 3:27 AM on Monday 24 Nov 2014 (Local Time) from KINT Reporting Station
Broken Clouds Broken Clouds  
Wind Chill: 61°   Ceiling: 2400
Heat Index: 61°   Visibility: 10mi
Dew Point: 54°   Wind: 10mph
Humidity: 78%   Direction: 220°SW
Pressure: 29.74"   Gusts: 18mph
Location:  36.28°N, 80.36°W
Report Text: KINT 240827Z AUTO 22009G16KT 190V260 10SM BKN024 BKN031 16/12 A2974 RMK AO2 T01610122
Loading
Personal Weather Stations






























Interactive Weather Map New forecast layout! Learn more

10-Day Weather Forecast

Advertisements
Track Severe Weather on mobile